sensor_id;sensor_type;location;lat;lon;timestamp;P1;durP1;ratioP1;P2;durP2;ratioP2
57947;SDS011;43754;56.992;24.292;2022-11-06T00:00:17;7.55;;;4.68;;
57947;SDS011;43754;56.992;24.292;2022-11-06T00:02:49;7.38;;;4.70;;
57947;SDS011;43754;56.992;24.292;2022-11-06T00:05:21;9.75;;;4.97;;
57947;SDS011;43754;56.992;24.292;2022-11-06T00:10:44;5.93;;;3.85;;
57947;SDS011;43754;56.992;24.292;2022-11-06T00:13:17;7.82;;;4.55;;
57947;SDS011;43754;56.992;24.292;2022-11-06T00:15:49;8.43;;;4.90;;
57947;SDS011;43754;56.992;24.292;2022-11-06T00:18:24;6.43;;;4.32;;
57947;SDS011;43754;56.992;24.292;2022-11-06T00:20:57;9.48;;;4.53;;
57947;SDS011;43754;56.992;24.292;2022-11-06T00:23:29;5.35;;;4.07;;
57947;SDS011;43754;56.992;24.292;2022-11-06T00:26:03;5.20;;;3.80;;
57947;SDS011;43754;56.992;24.292;2022-11-06T00:28:37;6.75;;;4.30;;
57947;SDS011;43754;56.992;24.292;2022-11-06T00:31:11;4.80;;;3.53;;
57947;SDS011;43754;56.992;24.292;2022-11-06T00:33:44;4.80;;;3.55;;
57947;SDS011;43754;56.992;24.292;2022-11-06T00:36:17;4.90;;;3.63;;
57947;SDS011;43754;56.992;24.292;2022-11-06T00:38:50;4.95;;;3.53;;
57947;SDS011;43754;56.992;24.292;2022-11-06T00:41:23;5.82;;;3.95;;
57947;SDS011;43754;56.992;24.292;2022-11-06T00:43:57;4.30;;;3.00;;
57947;SDS011;43754;56.992;24.292;2022-11-06T00:46:30;4.50;;;3.15;;
57947;SDS011;43754;56.992;24.292;2022-11-06T00:49:02;5.30;;;3.55;;
57947;SDS011;43754;56.992;24.292;2022-11-06T00:51:35;4.18;;;3.33;;
57947;SDS011;43754;56.992;24.292;2022-11-06T00:54:11;4.45;;;3.28;;
57947;SDS011;43754;56.992;24.292;2022-11-06T00:56:44;6.18;;;3.78;;
57947;SDS011;43754;56.992;24.292;2022-11-06T00:59:17;4.88;;;3.25;;
57947;SDS011;43754;56.992;24.292;2022-11-06T01:01:49;4.53;;;3.28;;
57947;SDS011;43754;56.992;24.292;2022-11-06T01:04:22;5.00;;;3.20;;
57947;SDS011;43754;56.992;24.292;2022-11-06T01:06:54;5.07;;;3.13;;
57947;SDS011;43754;56.992;24.292;2022-11-06T01:09:29;4.55;;;3.58;;
57947;SDS011;43754;56.992;24.292;2022-11-06T01:12:01;6.57;;;3.70;;
57947;SDS011;43754;56.992;24.292;2022-11-06T01:14:50;5.35;;;3.03;;
57947;SDS011;43754;56.992;24.292;2022-11-06T01:17:22;5.60;;;3.47;;
57947;SDS011;43754;56.992;24.292;2022-11-06T01:19:54;6.28;;;3.58;;
57947;SDS011;43754;56.992;24.292;2022-11-06T01:22:26;4.95;;;3.42;;
57947;SDS011;43754;56.992;24.292;2022-11-06T01:24:58;7.45;;;4.07;;
57947;SDS011;43754;56.992;24.292;2022-11-06T01:27:30;6.95;;;4.50;;
57947;SDS011;43754;56.992;24.292;2022-11-06T01:30:04;5.82;;;3.72;;
57947;SDS011;43754;56.992;24.292;2022-11-06T01:32:37;4.35;;;3.00;;
57947;SDS011;43754;56.992;24.292;2022-11-06T01:35:08;5.47;;;2.97;;
57947;SDS011;43754;56.992;24.292;2022-11-06T01:37:41;4.43;;;3.25;;
57947;SDS011;43754;56.992;24.292;2022-11-06T01:40:13;6.13;;;3.80;;
57947;SDS011;43754;56.992;24.292;2022-11-06T01:42:45;5.88;;;3.50;;
57947;SDS011;43754;56.992;24.292;2022-11-06T01:45:30;5.80;;;4.40;;
57947;SDS011;43754;56.992;24.292;2022-11-06T01:48:05;5.60;;;3.80;;
57947;SDS011;43754;56.992;24.292;2022-11-06T01:50:38;5.90;;;3.60;;
57947;SDS011;43754;56.992;24.292;2022-11-06T01:53:12;4.47;;;2.85;;
57947;SDS011;43754;56.992;24.292;2022-11-06T01:55:45;5.10;;;3.40;;
57947;SDS011;43754;56.992;24.292;2022-11-06T01:58:19;6.15;;;4.55;;
57947;SDS011;43754;56.992;24.292;2022-11-06T02:00:54;6.53;;;4.53;;
57947;SDS011;43754;56.992;24.292;2022-11-06T02:03:26;7.53;;;3.85;;
57947;SDS011;43754;56.992;24.292;2022-11-06T02:05:58;6.70;;;4.20;;
57947;SDS011;43754;56.992;24.292;2022-11-06T02:08:31;8.10;;;4.72;;
57947;SDS011;43754;56.992;24.292;2022-11-06T02:11:04;4.40;;;3.63;;
57947;SDS011;43754;56.992;24.292;2022-11-06T02:13:38;8.20;;;4.57;;
57947;SDS011;43754;56.992;24.292;2022-11-06T02:16:22;6.72;;;4.40;;
57947;SDS011;43754;56.992;24.292;2022-11-06T02:19:14;7.25;;;4.45;;
57947;SDS011;43754;56.992;24.292;2022-11-06T02:22:25;6.43;;;4.47;;
57947;SDS011;43754;56.992;24.292;2022-11-06T02:25:11;9.15;;;4.80;;
57947;SDS011;43754;56.992;24.292;2022-11-06T02:27:49;7.82;;;5.30;;
57947;SDS011;43754;56.992;24.292;2022-11-06T02:30:24;6.93;;;3.75;;
57947;SDS011;43754;56.992;24.292;2022-11-06T02:32:57;6.40;;;4.90;;
57947;SDS011;43754;56.992;24.292;2022-11-06T02:35:34;8.48;;;5.60;;
57947;SDS011;43754;56.992;24.292;2022-11-06T02:38:11;8.23;;;5.50;;
57947;SDS011;43754;56.992;24.292;2022-11-06T02:40:48;9.13;;;6.13;;
57947;SDS011;43754;56.992;24.292;2022-11-06T02:43:25;7.70;;;4.90;;
57947;SDS011;43754;56.992;24.292;2022-11-06T02:46:01;7.88;;;5.70;;
57947;SDS011;43754;56.992;24.292;2022-11-06T02:48:37;7.88;;;5.38;;
57947;SDS011;43754;56.992;24.292;2022-11-06T02:51:14;7.65;;;5.10;;
57947;SDS011;43754;56.992;24.292;2022-11-06T02:53:49;7.18;;;5.32;;
57947;SDS011;43754;56.992;24.292;2022-11-06T02:56:24;6.28;;;4.90;;
57947;SDS011;43754;56.992;24.292;2022-11-06T02:59:01;5.95;;;4.72;;
57947;SDS011;43754;56.992;24.292;2022-11-06T03:01:37;8.80;;;6.50;;
57947;SDS011;43754;56.992;24.292;2022-11-06T03:04:15;11.45;;;6.40;;
57947;SDS011;43754;56.992;24.292;2022-11-06T03:06:51;6.68;;;5.32;;
57947;SDS011;43754;56.992;24.292;2022-11-06T03:09:28;6.15;;;4.70;;
57947;SDS011;43754;56.992;24.292;2022-11-06T03:12:03;8.82;;;6.32;;
57947;SDS011;43754;56.992;24.292;2022-11-06T03:14:49;7.78;;;6.15;;
57947;SDS011;43754;56.992;24.292;2022-11-06T03:17:29;11.83;;;6.57;;
57947;SDS011;43754;56.992;24.292;2022-11-06T03:20:12;8.00;;;5.70;;
57947;SDS011;43754;56.992;24.292;2022-11-06T03:22:53;13.68;;;7.20;;
57947;SDS011;43754;56.992;24.292;2022-11-06T03:25:29;13.43;;;7.82;;
57947;SDS011;43754;56.992;24.292;2022-11-06T03:28:11;9.70;;;6.03;;
57947;SDS011;43754;56.992;24.292;2022-11-06T03:30:49;10.25;;;7.07;;
57947;SDS011;43754;56.992;24.292;2022-11-06T03:33:25;11.75;;;8.23;;
57947;SDS011;43754;56.992;24.292;2022-11-06T03:36:04;10.48;;;8.30;;
57947;SDS011;43754;56.992;24.292;2022-11-06T03:38:40;11.88;;;7.50;;
57947;SDS011;43754;56.992;24.292;2022-11-06T03:41:17;12.45;;;7.97;;
57947;SDS011;43754;56.992;24.292;2022-11-06T03:43:53;12.05;;;8.05;;
57947;SDS011;43754;56.992;24.292;2022-11-06T03:46:32;16.02;;;9.85;;
57947;SDS011;43754;56.992;24.292;2022-11-06T03:49:09;16.02;;;10.02;;
57947;SDS011;43754;56.992;24.292;2022-11-06T03:51:44;16.55;;;11.23;;
57947;SDS011;43754;56.992;24.292;2022-11-06T03:54:24;20.35;;;13.43;;
57947;SDS011;43754;56.992;24.292;2022-11-06T03:57:01;19.38;;;10.43;;
57947;SDS011;43754;56.992;24.292;2022-11-06T03:59:38;18.80;;;12.93;;
57947;SDS011;43754;56.992;24.292;2022-11-06T04:02:16;22.63;;;12.85;;
57947;SDS011;43754;56.992;24.292;2022-11-06T04:04:52;17.20;;;13.32;;
57947;SDS011;43754;56.992;24.292;2022-11-06T04:07:29;17.38;;;11.48;;
57947;SDS011;43754;56.992;24.292;2022-11-06T04:10:05;15.68;;;11.77;;
57947;SDS011;43754;56.992;24.292;2022-11-06T04:12:59;19.80;;;14.27;;
57947;SDS011;43754;56.992;24.292;2022-11-06T04:15:50;17.27;;;12.10;;
57947;SDS011;43754;56.992;24.292;2022-11-06T04:18:25;17.73;;;12.88;;
57947;SDS011;43754;56.992;24.292;2022-11-06T04:20:59;19.00;;;12.85;;
57947;SDS011;43754;56.992;24.292;2022-11-06T04:23:56;20.98;;;12.70;;
57947;SDS011;43754;56.992;24.292;2022-11-06T04:27:13;15.18;;;10.75;;
57947;SDS011;43754;56.992;24.292;2022-11-06T04:30:04;19.85;;;14.73;;
57947;SDS011;43754;56.992;24.292;2022-11-06T04:32:40;19.42;;;12.48;;
57947;SDS011;43754;56.992;24.292;2022-11-06T04:35:33;18.45;;;12.25;;
57947;SDS011;43754;56.992;24.292;2022-11-06T04:38:15;22.13;;;11.57;;
57947;SDS011;43754;56.992;24.292;2022-11-06T04:40:57;20.45;;;11.57;;
57947;SDS011;43754;56.992;24.292;2022-11-06T04:43:36;11.57;;;8.95;;
57947;SDS011;43754;56.992;24.292;2022-11-06T04:46:15;16.73;;;8.55;;
57947;SDS011;43754;56.992;24.292;2022-11-06T04:48:52;20.08;;;10.82;;
57947;SDS011;43754;56.992;24.292;2022-11-06T04:51:27;15.15;;;8.88;;
57947;SDS011;43754;56.992;24.292;2022-11-06T04:54:04;19.70;;;8.90;;
57947;SDS011;43754;56.992;24.292;2022-11-06T04:56:37;19.77;;;9.85;;
57947;SDS011;43754;56.992;24.292;2022-11-06T04:59:16;17.65;;;9.45;;
57947;SDS011;43754;56.992;24.292;2022-11-06T05:01:49;23.65;;;10.73;;
57947;SDS011;43754;56.992;24.292;2022-11-06T05:04:21;17.52;;;8.63;;
57947;SDS011;43754;56.992;24.292;2022-11-06T05:06:54;13.90;;;8.48;;
57947;SDS011;43754;56.992;24.292;2022-11-06T05:09:26;20.58;;;10.05;;
57947;SDS011;43754;56.992;24.292;2022-11-06T05:11:58;14.85;;;8.60;;
57947;SDS011;43754;56.992;24.292;2022-11-06T05:14:30;17.25;;;9.88;;
57947;SDS011;43754;56.992;24.292;2022-11-06T05:17:03;15.55;;;8.27;;
57947;SDS011;43754;56.992;24.292;2022-11-06T05:19:35;13.10;;;7.45;;
57947;SDS011;43754;56.992;24.292;2022-11-06T05:22:09;14.35;;;7.65;;
57947;SDS011;43754;56.992;24.292;2022-11-06T05:24:59;13.57;;;7.38;;
57947;SDS011;43754;56.992;24.292;2022-11-06T05:27:31;14.27;;;7.88;;
57947;SDS011;43754;56.992;24.292;2022-11-06T05:30:03;17.85;;;9.18;;
57947;SDS011;43754;56.992;24.292;2022-11-06T05:32:36;12.73;;;7.25;;
57947;SDS011;43754;56.992;24.292;2022-11-06T05:35:08;13.63;;;7.05;;
57947;SDS011;43754;56.992;24.292;2022-11-06T05:37:42;15.93;;;7.47;;
57947;SDS011;43754;56.992;24.292;2022-11-06T05:40:14;14.93;;;6.72;;
57947;SDS011;43754;56.992;24.292;2022-11-06T05:42:46;15.02;;;8.40;;
57947;SDS011;43754;56.992;24.292;2022-11-06T05:45:18;12.30;;;6.43;;
57947;SDS011;43754;56.992;24.292;2022-11-06T05:47:50;11.77;;;6.63;;
57947;SDS011;43754;56.992;24.292;2022-11-06T05:50:22;15.05;;;8.00;;
57947;SDS011;43754;56.992;24.292;2022-11-06T05:52:56;13.75;;;6.90;;
57947;SDS011;43754;56.992;24.292;2022-11-06T05:55:30;18.55;;;7.22;;
57947;SDS011;43754;56.992;24.292;2022-11-06T05:58:02;15.35;;;7.50;;
57947;SDS011;43754;56.992;24.292;2022-11-06T06:00:34;15.43;;;7.07;;
57947;SDS011;43754;56.992;24.292;2022-11-06T06:03:06;12.93;;;6.50;;
57947;SDS011;43754;56.992;24.292;2022-11-06T06:05:38;16.15;;;8.32;;
57947;SDS011;43754;56.992;24.292;2022-11-06T06:08:11;16.15;;;7.35;;
57947;SDS011;43754;56.992;24.292;2022-11-06T06:10:44;14.55;;;7.05;;
57947;SDS011;43754;56.992;24.292;2022-11-06T06:13:17;14.50;;;7.22;;
57947;SDS011;43754;56.992;24.292;2022-11-06T06:15:49;11.82;;;6.50;;
57947;SDS011;43754;56.992;24.292;2022-11-06T06:18:21;14.27;;;6.85;;
57947;SDS011;43754;56.992;24.292;2022-11-06T06:20:53;13.23;;;7.28;;
57947;SDS011;43754;56.992;24.292;2022-11-06T06:23:26;14.38;;;6.45;;
57947;SDS011;43754;56.992;24.292;2022-11-06T06:25:58;18.75;;;8.25;;
57947;SDS011;43754;56.992;24.292;2022-11-06T06:28:30;13.18;;;6.55;;
57947;SDS011;43754;56.992;24.292;2022-11-06T06:31:02;11.25;;;6.93;;
57947;SDS011;43754;56.992;24.292;2022-11-06T06:33:35;14.80;;;8.40;;
57947;SDS011;43754;56.992;24.292;2022-11-06T06:36:07;16.33;;;7.97;;
57947;SDS011;43754;56.992;24.292;2022-11-06T06:38:41;14.20;;;8.35;;
57947;SDS011;43754;56.992;24.292;2022-11-06T06:41:13;16.50;;;7.70;;
57947;SDS011;43754;56.992;24.292;2022-11-06T06:43:46;11.57;;;6.43;;
57947;SDS011;43754;56.992;24.292;2022-11-06T06:46:19;13.43;;;7.22;;
57947;SDS011;43754;56.992;24.292;2022-11-06T06:48:51;11.15;;;6.63;;
57947;SDS011;43754;56.992;24.292;2022-11-06T06:51:23;10.93;;;6.10;;
57947;SDS011;43754;56.992;24.292;2022-11-06T06:53:56;9.95;;;6.20;;
57947;SDS011;43754;56.992;24.292;2022-11-06T06:56:28;13.25;;;7.45;;
57947;SDS011;43754;56.992;24.292;2022-11-06T06:59:00;14.95;;;8.27;;
57947;SDS011;43754;56.992;24.292;2022-11-06T07:01:32;11.13;;;6.50;;
57947;SDS011;43754;56.992;24.292;2022-11-06T07:04:05;14.98;;;8.20;;
57947;SDS011;43754;56.992;24.292;2022-11-06T07:06:37;17.42;;;10.10;;
57947;SDS011;43754;56.992;24.292;2022-11-06T07:09:10;23.92;;;13.05;;
57947;SDS011;43754;56.992;24.292;2022-11-06T07:11:42;16.60;;;8.77;;
57947;SDS011;43754;56.992;24.292;2022-11-06T07:14:14;19.10;;;9.30;;
57947;SDS011;43754;56.992;24.292;2022-11-06T07:16:46;15.32;;;9.00;;
57947;SDS011;43754;56.992;24.292;2022-11-06T07:19:24;16.95;;;8.13;;
57947;SDS011;43754;56.992;24.292;2022-11-06T07:21:56;12.25;;;7.40;;
57947;SDS011;43754;56.992;24.292;2022-11-06T07:24:29;17.52;;;8.15;;
57947;SDS011;43754;56.992;24.292;2022-11-06T07:27:01;11.82;;;6.75;;
57947;SDS011;43754;56.992;24.292;2022-11-06T07:29:33;14.43;;;7.82;;
57947;SDS011;43754;56.992;24.292;2022-11-06T07:32:07;16.02;;;7.47;;
57947;SDS011;43754;56.992;24.292;2022-11-06T07:34:39;11.77;;;7.00;;
57947;SDS011;43754;56.992;24.292;2022-11-06T07:37:10;15.10;;;6.85;;
57947;SDS011;43754;56.992;24.292;2022-11-06T07:39:44;11.60;;;7.20;;
57947;SDS011;43754;56.992;24.292;2022-11-06T07:42:16;10.32;;;6.43;;
57947;SDS011;43754;56.992;24.292;2022-11-06T07:45:00;12.35;;;7.68;;
57947;SDS011;43754;56.992;24.292;2022-11-06T07:47:32;13.48;;;6.03;;
57947;SDS011;43754;56.992;24.292;2022-11-06T07:50:04;10.13;;;6.28;;
57947;SDS011;43754;56.992;24.292;2022-11-06T07:52:37;11.15;;;6.30;;
57947;SDS011;43754;56.992;24.292;2022-11-06T07:55:10;9.30;;;5.60;;
57947;SDS011;43754;56.992;24.292;2022-11-06T07:57:42;15.43;;;9.48;;
57947;SDS011;43754;56.992;24.292;2022-11-06T08:00:15;9.60;;;7.32;;
57947;SDS011;43754;56.992;24.292;2022-11-06T08:02:49;8.23;;;5.45;;
57947;SDS011;43754;56.992;24.292;2022-11-06T08:05:22;16.65;;;7.75;;
57947;SDS011;43754;56.992;24.292;2022-11-06T08:07:55;12.75;;;7.03;;
57947;SDS011;43754;56.992;24.292;2022-11-06T08:10:29;13.93;;;6.80;;
57947;SDS011;43754;56.992;24.292;2022-11-06T08:13:01;17.35;;;8.82;;
57947;SDS011;43754;56.992;24.292;2022-11-06T08:15:33;22.45;;;12.23;;
57947;SDS011;43754;56.992;24.292;2022-11-06T08:18:07;19.63;;;11.38;;
57947;SDS011;43754;56.992;24.292;2022-11-06T08:20:40;17.48;;;10.00;;
57947;SDS011;43754;56.992;24.292;2022-11-06T08:23:12;16.98;;;10.18;;
57947;SDS011;43754;56.992;24.292;2022-11-06T08:25:45;15.30;;;8.80;;
57947;SDS011;43754;56.992;24.292;2022-11-06T08:28:17;14.60;;;8.23;;
57947;SDS011;43754;56.992;24.292;2022-11-06T08:30:49;17.48;;;8.70;;
57947;SDS011;43754;56.992;24.292;2022-11-06T08:33:22;16.52;;;9.38;;
57947;SDS011;43754;56.992;24.292;2022-11-06T08:35:54;14.00;;;7.88;;
57947;SDS011;43754;56.992;24.292;2022-11-06T08:38:26;15.77;;;8.73;;
57947;SDS011;43754;56.992;24.292;2022-11-06T08:41:03;18.67;;;9.73;;
57947;SDS011;43754;56.992;24.292;2022-11-06T08:43:36;10.52;;;7.03;;
57947;SDS011;43754;56.992;24.292;2022-11-06T08:46:09;15.27;;;7.45;;
57947;SDS011;43754;56.992;24.292;2022-11-06T08:48:41;13.38;;;7.43;;
57947;SDS011;43754;56.992;24.292;2022-11-06T08:51:13;11.82;;;7.00;;
57947;SDS011;43754;56.992;24.292;2022-11-06T08:53:45;16.85;;;8.77;;
57947;SDS011;43754;56.992;24.292;2022-11-06T08:56:19;16.42;;;8.60;;
57947;SDS011;43754;56.992;24.292;2022-11-06T08:58:51;15.40;;;7.10;;
57947;SDS011;43754;56.992;24.292;2022-11-06T09:01:26;13.25;;;7.93;;
57947;SDS011;43754;56.992;24.292;2022-11-06T09:03:58;15.65;;;8.45;;
57947;SDS011;43754;56.992;24.292;2022-11-06T09:06:30;19.20;;;8.77;;
57947;SDS011;43754;56.992;24.292;2022-11-06T09:09:02;12.18;;;8.52;;
57947;SDS011;43754;56.992;24.292;2022-11-06T09:11:36;20.52;;;9.77;;
57947;SDS011;43754;56.992;24.292;2022-11-06T09:14:08;15.88;;;10.23;;
57947;SDS011;43754;56.992;24.292;2022-11-06T09:16:40;14.43;;;8.38;;
57947;SDS011;43754;56.992;24.292;2022-11-06T09:19:11;16.02;;;9.25;;
57947;SDS011;43754;56.992;24.292;2022-11-06T09:21:44;16.73;;;9.00;;
57947;SDS011;43754;56.992;24.292;2022-11-06T09:24:23;17.23;;;9.10;;
57947;SDS011;43754;56.992;24.292;2022-11-06T09:27:17;16.75;;;10.90;;
57947;SDS011;43754;56.992;24.292;2022-11-06T09:29:49;17.15;;;10.13;;
57947;SDS011;43754;56.992;24.292;2022-11-06T09:32:21;14.23;;;9.45;;
57947;SDS011;43754;56.992;24.292;2022-11-06T09:34:54;15.73;;;9.48;;
57947;SDS011;43754;56.992;24.292;2022-11-06T09:37:26;13.15;;;7.95;;
57947;SDS011;43754;56.992;24.292;2022-11-06T09:39:58;9.52;;;6.88;;
57947;SDS011;43754;56.992;24.292;2022-11-06T09:42:40;15.32;;;8.38;;
57947;SDS011;43754;56.992;24.292;2022-11-06T09:45:25;18.58;;;7.90;;
57947;SDS011;43754;56.992;24.292;2022-11-06T09:48:02;13.30;;;7.28;;
57947;SDS011;43754;56.992;24.292;2022-11-06T09:50:43;18.48;;;7.30;;
57947;SDS011;43754;56.992;24.292;2022-11-06T09:53:22;14.32;;;6.43;;
57947;SDS011;43754;56.992;24.292;2022-11-06T09:55:59;10.32;;;6.93;;
57947;SDS011;43754;56.992;24.292;2022-11-06T09:58:34;18.05;;;7.50;;
57947;SDS011;43754;56.992;24.292;2022-11-06T10:01:12;13.18;;;7.40;;
57947;SDS011;43754;56.992;24.292;2022-11-06T10:03:55;10.73;;;6.30;;
57947;SDS011;43754;56.992;24.292;2022-11-06T10:06:29;14.82;;;6.93;;
57947;SDS011;43754;56.992;24.292;2022-11-06T10:09:02;8.77;;;5.93;;
57947;SDS011;43754;56.992;24.292;2022-11-06T10:11:46;13.73;;;6.28;;
57947;SDS011;43754;56.992;24.292;2022-11-06T10:14:33;11.85;;;5.68;;
57947;SDS011;43754;56.992;24.292;2022-11-06T10:17:18;11.48;;;5.38;;
57947;SDS011;43754;56.992;24.292;2022-11-06T10:22:45;10.23;;;5.90;;
57947;SDS011;43754;56.992;24.292;2022-11-06T10:25:29;13.27;;;5.88;;
57947;SDS011;43754;56.992;24.292;2022-11-06T10:28:19;11.60;;;6.25;;
57947;SDS011;43754;56.992;24.292;2022-11-06T10:31:03;10.80;;;5.30;;
57947;SDS011;43754;56.992;24.292;2022-11-06T10:33:49;13.45;;;4.90;;
57947;SDS011;43754;56.992;24.292;2022-11-06T10:36:27;8.15;;;5.75;;
57947;SDS011;43754;56.992;24.292;2022-11-06T10:39:05;8.27;;;5.65;;
57947;SDS011;43754;56.992;24.292;2022-11-06T10:41:47;9.35;;;5.00;;
57947;SDS011;43754;56.992;24.292;2022-11-06T10:44:22;14.40;;;6.22;;
57947;SDS011;43754;56.992;24.292;2022-11-06T10:47:02;14.63;;;6.88;;
57947;SDS011;43754;56.992;24.292;2022-11-06T10:49:37;19.98;;;8.40;;
57947;SDS011;43754;56.992;24.292;2022-11-06T10:52:27;12.82;;;7.45;;
57947;SDS011;43754;56.992;24.292;2022-11-06T10:58:27;16.83;;;10.50;;
57947;SDS011;43754;56.992;24.292;2022-11-06T11:01:02;27.67;;;18.58;;
57947;SDS011;43754;56.992;24.292;2022-11-06T11:03:38;22.63;;;11.73;;
57947;SDS011;43754;56.992;24.292;2022-11-06T11:06:12;20.83;;;11.20;;
57947;SDS011;43754;56.992;24.292;2022-11-06T11:08:45;20.88;;;9.77;;
57947;SDS011;43754;56.992;24.292;2022-11-06T11:11:19;18.30;;;8.98;;
57947;SDS011;43754;56.992;24.292;2022-11-06T11:14:12;19.67;;;9.65;;
57947;SDS011;43754;56.992;24.292;2022-11-06T11:16:52;20.88;;;10.50;;
57947;SDS011;43754;56.992;24.292;2022-11-06T11:19:33;23.20;;;14.15;;
57947;SDS011;43754;56.992;24.292;2022-11-06T11:22:16;24.02;;;15.32;;
57947;SDS011;43754;56.992;24.292;2022-11-06T11:24:57;18.55;;;10.15;;
57947;SDS011;43754;56.992;24.292;2022-11-06T11:27:34;16.73;;;10.75;;
57947;SDS011;43754;56.992;24.292;2022-11-06T11:30:10;19.25;;;10.48;;
57947;SDS011;43754;56.992;24.292;2022-11-06T11:32:51;20.80;;;11.25;;
57947;SDS011;43754;56.992;24.292;2022-11-06T11:35:26;19.10;;;9.00;;
57947;SDS011;43754;56.992;24.292;2022-11-06T11:38:04;20.05;;;9.13;;
57947;SDS011;43754;56.992;24.292;2022-11-06T11:40:37;20.83;;;10.65;;
57947;SDS011;43754;56.992;24.292;2022-11-06T11:43:23;15.80;;;8.85;;
57947;SDS011;43754;56.992;24.292;2022-11-06T11:48:51;16.88;;;9.43;;
57947;SDS011;43754;56.992;24.292;2022-11-06T11:51:34;19.35;;;10.88;;
57947;SDS011;43754;56.992;24.292;2022-11-06T11:54:14;13.25;;;7.88;;
57947;SDS011;43754;56.992;24.292;2022-11-06T11:56:49;15.98;;;9.93;;
57947;SDS011;43754;56.992;24.292;2022-11-06T11:59:40;11.23;;;5.95;;
57947;SDS011;43754;56.992;24.292;2022-11-06T12:02:16;21.85;;;18.48;;
57947;SDS011;43754;56.992;24.292;2022-11-06T12:04:57;22.33;;;13.52;;
57947;SDS011;43754;56.992;24.292;2022-11-06T12:07:34;25.25;;;19.85;;
57947;SDS011;43754;56.992;24.292;2022-11-06T12:10:18;22.27;;;11.55;;
57947;SDS011;43754;56.992;24.292;2022-11-06T12:12:57;16.25;;;10.77;;
57947;SDS011;43754;56.992;24.292;2022-11-06T12:15:32;17.73;;;9.90;;
57947;SDS011;43754;56.992;24.292;2022-11-06T12:18:12;22.15;;;14.05;;
57947;SDS011;43754;56.992;24.292;2022-11-06T12:20:48;43.17;;;36.63;;
57947;SDS011;43754;56.992;24.292;2022-11-06T12:23:27;15.45;;;10.63;;
57947;SDS011;43754;56.992;24.292;2022-11-06T12:26:05;13.43;;;8.25;;
57947;SDS011;43754;56.992;24.292;2022-11-06T12:28:42;14.77;;;10.95;;
57947;SDS011;43754;56.992;24.292;2022-11-06T12:31:16;18.65;;;9.27;;
57947;SDS011;43754;56.992;24.292;2022-11-06T12:34:09;15.48;;;8.18;;
57947;SDS011;43754;56.992;24.292;2022-11-06T12:36:52;31.83;;;17.08;;
57947;SDS011;43754;56.992;24.292;2022-11-06T12:39:36;27.52;;;16.77;;
57947;SDS011;43754;56.992;24.292;2022-11-06T12:42:15;17.20;;;10.52;;
57947;SDS011;43754;56.992;24.292;2022-11-06T12:44:49;24.83;;;12.48;;
57947;SDS011;43754;56.992;24.292;2022-11-06T12:47:24;45.75;;;20.17;;
57947;SDS011;43754;56.992;24.292;2022-11-06T12:50:28;32.53;;;16.23;;
57947;SDS011;43754;56.992;24.292;2022-11-06T12:53:23;18.70;;;9.38;;
57947;SDS011;43754;56.992;24.292;2022-11-06T12:56:09;16.77;;;7.53;;
57947;SDS011;43754;56.992;24.292;2022-11-06T12:58:53;15.35;;;9.35;;
57947;SDS011;43754;56.992;24.292;2022-11-06T13:01:35;14.70;;;8.18;;
57947;SDS011;43754;56.992;24.292;2022-11-06T13:04:28;14.63;;;7.13;;
57947;SDS011;43754;56.992;24.292;2022-11-06T13:10:17;17.30;;;8.35;;
57947;SDS011;43754;56.992;24.292;2022-11-06T13:13:03;17.80;;;8.32;;
57947;SDS011;43754;56.992;24.292;2022-11-06T13:15:48;19.42;;;8.35;;
57947;SDS011;43754;56.992;24.292;2022-11-06T13:18:27;17.52;;;8.48;;
57947;SDS011;43754;56.992;24.292;2022-11-06T13:21:05;14.05;;;8.52;;
57947;SDS011;43754;56.992;24.292;2022-11-06T13:23:47;14.45;;;7.90;;
57947;SDS011;43754;56.992;24.292;2022-11-06T13:26:22;13.73;;;7.32;;
57947;SDS011;43754;56.992;24.292;2022-11-06T13:29:03;14.32;;;8.50;;
57947;SDS011;43754;56.992;24.292;2022-11-06T13:31:37;14.30;;;7.93;;
57947;SDS011;43754;56.992;24.292;2022-11-06T13:34:14;15.90;;;7.28;;
57947;SDS011;43754;56.992;24.292;2022-11-06T13:36:49;13.90;;;7.93;;
57947;SDS011;43754;56.992;24.292;2022-11-06T13:39:23;14.73;;;7.88;;
57947;SDS011;43754;56.992;24.292;2022-11-06T13:42:02;13.18;;;8.18;;
57947;SDS011;43754;56.992;24.292;2022-11-06T13:44:42;20.90;;;9.48;;
57947;SDS011;43754;56.992;24.292;2022-11-06T13:47:15;16.65;;;9.80;;
57947;SDS011;43754;56.992;24.292;2022-11-06T13:49:54;20.45;;;9.20;;
57947;SDS011;43754;56.992;24.292;2022-11-06T13:52:33;24.13;;;10.73;;
57947;SDS011;43754;56.992;24.292;2022-11-06T13:55:13;22.92;;;11.98;;
57947;SDS011;43754;56.992;24.292;2022-11-06T13:58:06;17.52;;;9.93;;
57947;SDS011;43754;56.992;24.292;2022-11-06T14:00:56;21.92;;;14.88;;
57947;SDS011;43754;56.992;24.292;2022-11-06T14:03:49;21.30;;;10.20;;
57947;SDS011;43754;56.992;24.292;2022-11-06T14:06:34;19.52;;;9.32;;
57947;SDS011;43754;56.992;24.292;2022-11-06T14:09:09;17.75;;;8.52;;
57947;SDS011;43754;56.992;24.292;2022-11-06T14:11:50;25.92;;;12.02;;
57947;SDS011;43754;56.992;24.292;2022-11-06T14:14:24;23.67;;;12.73;;
57947;SDS011;43754;56.992;24.292;2022-11-06T14:19:59;21.77;;;12.00;;
57947;SDS011;43754;56.992;24.292;2022-11-06T14:22:35;25.80;;;14.68;;
57947;SDS011;43754;56.992;24.292;2022-11-06T14:28:27;19.73;;;12.13;;
57947;SDS011;43754;56.992;24.292;2022-11-06T14:31:00;25.23;;;14.05;;
57947;SDS011;43754;56.992;24.292;2022-11-06T14:34:00;22.30;;;13.35;;
57947;SDS011;43754;56.992;24.292;2022-11-06T14:36:33;24.00;;;14.38;;
57947;SDS011;43754;56.992;24.292;2022-11-06T14:39:08;23.65;;;13.52;;
57947;SDS011;43754;56.992;24.292;2022-11-06T14:41:49;23.75;;;13.65;;
57947;SDS011;43754;56.992;24.292;2022-11-06T14:44:31;28.23;;;14.95;;
57947;SDS011;43754;56.992;24.292;2022-11-06T14:47:20;22.50;;;12.95;;
57947;SDS011;43754;56.992;24.292;2022-11-06T14:49:58;20.20;;;12.38;;
57947;SDS011;43754;56.992;24.292;2022-11-06T14:52:38;23.15;;;12.77;;
57947;SDS011;43754;56.992;24.292;2022-11-06T14:55:22;23.00;;;11.52;;
57947;SDS011;43754;56.992;24.292;2022-11-06T14:57:59;29.08;;;14.35;;
57947;SDS011;43754;56.992;24.292;2022-11-06T15:00:46;31.92;;;18.45;;
57947;SDS011;43754;56.992;24.292;2022-11-06T15:03:23;39.97;;;19.73;;
57947;SDS011;43754;56.992;24.292;2022-11-06T15:06:05;32.85;;;16.45;;
57947;SDS011;43754;56.992;24.292;2022-11-06T15:08:51;37.45;;;17.50;;
57947;SDS011;43754;56.992;24.292;2022-11-06T15:17:32;26.30;;;15.40;;
57947;SDS011;43754;56.992;24.292;2022-11-06T15:23:09;23.90;;;12.25;;
57947;SDS011;43754;56.992;24.292;2022-11-06T15:25:53;23.75;;;13.57;;
57947;SDS011;43754;56.992;24.292;2022-11-06T15:28:32;23.35;;;11.70;;
57947;SDS011;43754;56.992;24.292;2022-11-06T15:31:12;19.00;;;10.25;;
57947;SDS011;43754;56.992;24.292;2022-11-06T15:33:50;20.77;;;11.90;;
57947;SDS011;43754;56.992;24.292;2022-11-06T15:36:31;14.30;;;9.13;;
57947;SDS011;43754;56.992;24.292;2022-11-06T15:39:21;19.55;;;11.40;;
57947;SDS011;43754;56.992;24.292;2022-11-06T15:41:57;19.60;;;10.88;;
57947;SDS011;43754;56.992;24.292;2022-11-06T15:44:29;15.15;;;9.10;;
57947;SDS011;43754;56.992;24.292;2022-11-06T15:47:01;16.20;;;9.75;;